Time;durP1;ratioP1;P1;durP2;ratioP2;P2;SDS_P1;SDS_P2;PMS_P1;PMS_P2;Temp;Humidity;BMP_temperature;BMP_pressure;BME280_temperature;BME280_humidity;BME280_pressure;Samples;Min_cycle;Max_cycle;Signal;HPM_P1;HPM_P2
2022/12/25 00:05:03;;;;;;;37.67;21.53;;;0.90;99.90;;;;;;10480469;28;20277;-78
2022/12/25 00:10:24;;;;;;;44.40;22.40;;;0.80;99.90;;;;;;10495337;28;20304;-79
2022/12/25 00:15:45;;;;;;;47.87;25.53;;;0.80;99.90;;;;;;10478923;28;20230;-78
2022/12/25 00:21:07;;;;;;;40.83;22.60;;;0.70;99.90;;;;;;10478835;28;20198;-78
2022/12/25 00:26:28;;;;;;;49.13;25.90;;;0.70;99.90;;;;;;10480052;28;20190;-78
2022/12/25 00:31:49;;;;;;;45.57;23.27;;;0.70;99.90;;;;;;10478487;28;20227;-78
2022/12/25 00:37:10;;;;;;;49.77;24.37;;;0.80;99.90;;;;;;10478307;28;20202;-78
2022/12/25 00:42:32;;;;;;;44.33;23.07;;;0.80;99.90;;;;;;10479097;28;20482;-78
2022/12/25 00:47:52;;;;;;;54.93;31.23;;;0.80;99.90;;;;;;10450083;28;20225;-78
2022/12/25 00:53:14;;;;;;;45.60;26.27;;;0.80;99.90;;;;;;10478152;28;20222;-78
2022/12/25 00:58:35;;;;;;;47.17;26.10;;;0.80;99.90;;;;;;10478352;28;20188;-78
2022/12/25 01:03:56;;;;;;;48.27;23.83;;;0.90;99.90;;;;;;10477999;28;20533;-78
2022/12/25 01:14:57;;;;;;;51.70;25.23;;;0.80;99.90;;;;;;10462979;28;20227;-78
2022/12/25 01:20:18;;;;;;;46.57;23.70;;;0.90;99.90;;;;;;10478397;28;20191;-78
2022/12/25 01:25:40;;;;;;;46.53;24.57;;;0.90;99.90;;;;;;10478034;28;20396;-78
2022/12/25 01:31:01;;;;;;;50.23;28.00;;;0.80;99.90;;;;;;10477384;28;20184;-78
2022/12/25 01:36:24;;;;;;;51.60;28.77;;;0.90;99.90;;;;;;10478120;28;20201;-78
2022/12/25 01:41:47;;;;;;;64.33;29.30;;;0.90;99.90;;;;;;10462568;28;20202;-78
2022/12/25 01:47:08;;;;;;;56.70;27.33;;;0.90;99.90;;;;;;10462596;28;20222;-77
2022/12/25 01:52:30;;;;;;;53.77;27.10;;;0.90;99.90;;;;;;10477707;28;20556;-79
2022/12/25 01:57:51;;;;;;;50.80;25.50;;;0.90;99.90;;;;;;10477259;28;20192;-79
2022/12/25 02:03:13;;;;;;;56.13;28.10;;;0.90;99.90;;;;;;10476399;28;20206;-78
2022/12/25 02:08:34;;;;;;;56.87;28.23;;;1.00;99.90;;;;;;10480812;28;20229;-78
2022/12/25 02:13:55;;;;;;;55.83;27.67;;;1.00;99.90;;;;;;10469787;28;20231;-78
2022/12/25 02:19:48;;;;;;;58.20;29.53;;;1.00;99.90;;;;;;10483898;28;20251;-79
2022/12/25 02:25:46;;;;;;;53.03;27.97;;;0.90;99.90;;;;;;10483774;28;20194;-78
2022/12/25 02:31:12;;;;;;;54.17;26.93;;;0.90;99.90;;;;;;10469212;28;20205;-78
2022/12/25 02:36:41;;;;;;;58.53;28.13;;;0.90;99.90;;;;;;10483468;28;20415;-79
2022/12/25 02:42:06;;;;;;;54.10;28.43;;;0.90;99.90;;;;;;10482900;28;20204;-78
2022/12/25 03:27:13;;;;;;;52.93;27.27;;;1.10;99.90;;;;;;10482277;28;20491;-78
2022/12/25 03:32:40;;;;;;;60.00;27.73;;;1.20;99.90;;;;;;10482021;28;20410;-78
2022/12/25 04:41:19;;;;;;;64.00;28.70;;;1.10;99.90;;;;;;10423200;28;20272;-78
2022/12/25 04:46:40;;;;;;;58.13;28.17;;;1.10;99.90;;;;;;10437244;28;20207;-78
2022/12/25 04:52:01;;;;;;;55.93;28.03;;;1.10;99.90;;;;;;10436345;28;20215;-78
2022/12/25 04:57:22;;;;;;;51.77;25.57;;;1.00;99.90;;;;;;10422481;28;20206;-77
2022/12/25 05:02:43;;;;;;;57.87;27.57;;;1.00;99.90;;;;;;10436207;28;20200;-78
2022/12/25 05:08:05;;;;;;;64.83;28.90;;;1.10;99.90;;;;;;10470454;28;20223;-78
2022/12/25 05:13:26;;;;;;;63.30;28.60;;;1.10;99.90;;;;;;10478534;28;20298;-78
2022/12/25 05:18:50;;;;;;;63.00;30.80;;;1.10;99.90;;;;;;10463145;28;20221;-78
2022/12/25 05:24:11;;;;;;;58.00;28.20;;;1.00;99.90;;;;;;10477877;28;20385;-78
2022/12/25 05:29:32;;;;;;;59.60;29.17;;;1.00;99.90;;;;;;10478092;28;20192;-78
2022/12/25 05:34:53;;;;;;;59.73;27.87;;;1.10;99.90;;;;;;10476564;28;20301;-77
2022/12/25 05:40:14;;;;;;;59.70;28.47;;;1.10;99.90;;;;;;10478185;28;20188;-79
2022/12/25 05:45:35;;;;;;;56.37;27.43;;;1.10;99.90;;;;;;10486306;28;20267;-79
2022/12/25 05:50:56;;;;;;;57.20;27.83;;;1.20;99.90;;;;;;10484728;28;20386;-78
2022/12/25 05:56:17;;;;;;;62.60;27.10;;;1.10;99.90;;;;;;10484644;28;20230;-78
2022/12/25 06:01:38;;;;;;;59.93;27.33;;;1.20;99.90;;;;;;10485398;28;20248;-78
2022/12/25 06:06:59;;;;;;;67.83;32.33;;;1.10;99.90;;;;;;10470040;28;20206;-78
2022/12/25 06:12:21;;;;;;;72.60;31.13;;;1.10;99.90;;;;;;10500265;28;20261;-78
2022/12/25 06:17:42;;;;;;;78.87;35.10;;;1.10;99.90;;;;;;10484052;28;20199;-78
2022/12/25 06:23:03;;;;;;;65.80;32.00;;;1.20;99.90;;;;;;10469679;28;20414;-78
2022/12/25 06:28:24;;;;;;;68.97;31.10;;;1.20;99.90;;;;;;10483497;28;20252;-78
2022/12/25 06:33:45;;;;;;;62.03;29.60;;;1.10;99.90;;;;;;10483336;28;20302;-78
2022/12/25 06:39:06;;;;;;;65.40;29.97;;;1.10;99.90;;;;;;10483187;28;20195;-78
2022/12/25 06:44:28;;;;;;;66.10;30.20;;;1.10;99.90;;;;;;10484097;28;20219;-78
2022/12/25 06:49:49;;;;;;;79.40;36.87;;;1.20;99.90;;;;;;10468759;28;20199;-78
2022/12/25 06:55:10;;;;;;;81.77;36.50;;;1.20;99.90;;;;;;10481964;28;20330;-78
2022/12/25 07:00:31;;;;;;;79.00;34.07;;;1.30;99.90;;;;;;10483115;28;20188;-78
2022/12/25 07:05:52;;;;;;;86.77;41.13;;;1.20;99.90;;;;;;10481815;28;20199;-78
2022/12/25 07:11:14;;;;;;;83.27;37.43;;;1.30;99.90;;;;;;10482816;28;20273;-78
2022/12/25 07:16:35;;;;;;;75.77;35.37;;;1.30;99.90;;;;;;10481387;28;20385;-79
2022/12/25 07:21:56;;;;;;;103.63;45.20;;;1.30;99.90;;;;;;10481756;28;20414;-78
2022/12/25 07:27:17;;;;;;;82.87;39.00;;;1.30;99.90;;;;;;10482438;28;20443;-78
2022/12/25 07:32:38;;;;;;;74.40;32.50;;;1.30;99.90;;;;;;10466817;28;20243;-78
2022/12/25 07:37:59;;;;;;;69.43;34.13;;;1.20;99.90;;;;;;10481903;28;20192;-77
2022/12/25 07:43:20;;;;;;;63.27;31.13;;;1.30;99.90;;;;;;10481487;28;20184;-78
2022/12/25 07:48:41;;;;;;;66.53;32.67;;;1.30;99.90;;;;;;10480762;28;20509;-78
2022/12/25 07:54:02;;;;;;;78.97;33.80;;;1.30;99.90;;;;;;10480244;28;20216;-78
2022/12/25 07:59:24;;;;;;;72.20;32.47;;;1.30;99.90;;;;;;10480926;28;20220;-78
2022/12/25 08:04:45;;;;;;;90.07;42.23;;;1.30;99.90;;;;;;10480602;28;20490;-78
2022/12/25 08:10:06;;;;;;;70.33;35.67;;;1.30;99.90;;;;;;10479190;28;20229;-78
2022/12/25 08:15:29;;;;;;;74.83;36.17;;;1.30;99.90;;;;;;10493202;28;20241;-78
2022/12/25 08:20:50;;;;;;;79.90;39.90;;;1.40;99.90;;;;;;10479016;28;20199;-78
2022/12/25 08:26:14;;;;;;;75.60;39.30;;;1.40;99.90;;;;;;10479219;28;20191;-78
2022/12/25 08:31:35;;;;;;;87.93;39.03;;;1.40;99.90;;;;;;10478816;28;20421;-78
2022/12/25 08:36:59;;;;;;;67.50;32.30;;;1.40;99.90;;;;;;10478572;28;20215;-78
2022/12/25 08:42:20;;;;;;;70.17;34.50;;;1.40;99.90;;;;;;10479213;28;20191;-78
2022/12/25 08:47:41;;;;;;;90.80;40.83;;;1.50;99.90;;;;;;10464373;28;20201;-78
2022/12/25 08:53:02;;;;;;;92.73;45.47;;;1.50;99.90;;;;;;10479409;28;20283;-78
2022/12/25 08:58:23;;;;;;;102.40;47.27;;;1.50;99.90;;;;;;10463935;28;20184;-78
2022/12/25 09:03:44;;;;;;;90.60;38.50;;;1.50;99.90;;;;;;10477845;28;20204;-78
2022/12/25 09:09:05;;;;;;;93.03;40.50;;;1.50;99.90;;;;;;10477313;28;20315;-78
2022/12/25 09:14:27;;;;;;;113.67;49.13;;;1.50;99.90;;;;;;10476972;28;20227;-78
2022/12/25 09:19:48;;;;;;;128.00;53.93;;;1.50;99.90;;;;;;10477188;28;20195;-78
2022/12/25 09:25:10;;;;;;;107.50;46.57;;;1.60;99.90;;;;;;10462863;28;20210;-79
2022/12/25 09:30:31;;;;;;;114.10;50.33;;;1.60;99.90;;;;;;10478223;28;20188;-78
2022/12/25 09:36:01;;;;;;;123.87;50.27;;;1.70;99.90;;;;;;10462690;28;20281;-78
2022/12/25 09:41:30;;;;;;;118.43;53.73;;;1.70;99.90;;;;;;10477846;28;20192;-78
2022/12/25 09:47:22;;;;;;;98.93;45.33;;;1.80;99.90;;;;;;10476576;28;20200;-78
2022/12/25 09:52:49;;;;;;;98.40;40.00;;;1.90;99.90;;;;;;10477456;28;20207;-78
2022/12/25 09:58:12;;;;;;;87.13;38.37;;;1.80;99.90;;;;;;10462369;28;20200;-78
2022/12/25 10:03:48;;;;;;;101.63;40.47;;;1.80;99.90;;;;;;10476440;28;20184;-78
2022/12/25 10:09:33;;;;;;;89.63;38.63;;;1.80;99.90;;;;;;10461561;28;20258;-79
2022/12/25 10:15:08;;;;;;;102.40;38.60;;;1.80;99.90;;;;;;10477098;28;20230;-78
2022/12/25 10:20:41;;;;;;;126.03;44.63;;;1.80;99.90;;;;;;10462039;28;20271;-78
2022/12/25 10:26:10;;;;;;;142.57;48.67;;;1.70;99.90;;;;;;10475882;28;20196;-78
2022/12/25 10:31:35;;;;;;;162.23;54.70;;;1.70;99.90;;;;;;10483887;28;20198;-78
2022/12/25 10:36:57;;;;;;;136.50;47.23;;;1.70;99.90;;;;;;10468868;28;20254;-79
2022/12/25 10:42:57;;;;;;;98.23;43.13;;;1.70;99.90;;;;;;10483194;28;20231;-78
2022/12/25 10:48:27;;;;;;;89.77;41.07;;;1.80;99.90;;;;;;10480496;28;20206;-78
2022/12/25 10:53:48;;;;;;;109.73;50.10;;;1.70;99.90;;;;;;10479836;28;20588;-78
2022/12/25 10:59:10;;;;;;;113.17;47.90;;;1.80;99.90;;;;;;10465888;28;20199;-78
2022/12/25 11:04:33;;;;;;;108.03;42.70;;;1.90;99.90;;;;;;10465562;28;20206;-78
2022/12/25 11:09:58;;;;;;;100.53;41.33;;;1.90;99.90;;;;;;10478201;28;20228;-78
2022/12/25 11:15:34;;;;;;;82.40;34.67;;;2.00;99.90;;;;;;10479037;28;20238;-78
2022/12/25 11:20:58;;;;;;;69.37;33.67;;;1.90;99.90;;;;;;10466856;28;20265;-78
2022/12/25 11:26:20;;;;;;;79.67;38.57;;;2.00;99.90;;;;;;10481243;28;20491;-78
2022/12/25 11:31:42;;;;;;;83.97;39.37;;;2.00;99.90;;;;;;10481187;28;20192;-78
2022/12/25 11:37:11;;;;;;;76.40;34.33;;;2.00;99.90;;;;;;10466938;28;20247;-78
2022/12/25 11:42:37;;;;;;;79.97;37.80;;;2.10;99.90;;;;;;10480536;28;20187;-78
2022/12/25 11:48:04;;;;;;;79.73;39.73;;;2.00;99.90;;;;;;10480538;28;20494;-78
2022/12/25 11:53:43;;;;;;;81.37;38.10;;;2.10;99.90;;;;;;10480022;28;20294;-78
2022/12/25 11:59:19;;;;;;;85.73;39.90;;;2.20;99.90;;;;;;10465725;28;20253;-78
2022/12/25 12:04:43;;;;;;;92.97;42.57;;;2.20;99.90;;;;;;10480420;28;20192;-78
2022/12/25 12:10:16;;;;;;;78.27;37.90;;;2.20;99.90;;;;;;10431368;28;20266;-78
2022/12/25 12:15:42;;;;;;;106.47;46.00;;;2.30;99.90;;;;;;10438238;28;20225;-79
2022/12/25 12:21:17;;;;;;;88.17;42.57;;;2.20;99.90;;;;;;10423474;28;20208;-78
2022/12/25 12:26:41;;;;;;;90.70;45.43;;;2.20;99.90;;;;;;10437900;28;20196;-78
2022/12/25 12:32:05;;;;;;;108.37;47.33;;;2.20;99.90;;;;;;10437684;28;20258;-78
2022/12/25 12:37:34;;;;;;;66.90;31.50;;;2.20;99.90;;;;;;10423014;28;20248;-79
2022/12/25 12:42:55;;;;;;;80.60;37.03;;;2.10;99.90;;;;;;10437259;28;20456;-78
2022/12/25 12:48:26;;;;;;;65.70;31.10;;;2.20;99.90;;;;;;10436740;28;20199;-79
2022/12/25 12:53:47;;;;;;;75.03;33.77;;;2.20;99.90;;;;;;10435809;28;20224;-78
2022/12/25 12:59:09;;;;;;;86.17;37.03;;;2.20;99.90;;;;;;10436731;28;20211;-77
2022/12/25 13:05:02;;;;;;;54.43;28.50;;;2.30;99.90;;;;;;10440308;28;20202;-78
2022/12/25 13:10:40;;;;;;;47.60;25.03;;;2.30;99.90;;;;;;10469038;28;20237;-79
2022/12/25 13:16:03;;;;;;;62.53;27.83;;;2.30;99.90;;;;;;10422391;28;20331;-79
2022/12/25 13:21:27;;;;;;;54.27;26.63;;;2.30;99.90;;;;;;10436307;28;20192;-78
2022/12/25 13:26:48;;;;;;;54.47;27.27;;;2.30;99.90;;;;;;10421907;28;20255;-78
2022/12/25 13:32:22;;;;;;;48.53;25.20;;;2.30;99.90;;;;;;10435527;28;20197;-78
2022/12/25 13:37:43;;;;;;;50.47;26.63;;;2.30;99.90;;;;;;10435563;28;20240;-78
2022/12/25 13:43:09;;;;;;;50.93;24.77;;;2.20;99.90;;;;;;10435730;28;20192;-78
2022/12/25 13:48:31;;;;;;;49.43;23.13;;;2.20;99.90;;;;;;10436275;28;20218;-78
2022/12/25 13:54:03;;;;;;;45.57;24.17;;;2.30;99.90;;;;;;10436541;28;20226;-78
2022/12/25 13:59:24;;;;;;;50.00;26.80;;;2.30;99.90;;;;;;10436396;28;20230;-79
2022/12/25 14:04:45;;;;;;;50.80;24.57;;;2.30;99.90;;;;;;10447464;28;20389;-78
2022/12/25 14:10:12;;;;;;;47.10;24.43;;;2.30;99.90;;;;;;10465198;28;20229;-78
2022/12/25 14:15:35;;;;;;;48.53;24.97;;;2.30;99.90;;;;;;10456660;28;20225;-78
2022/12/25 14:21:07;;;;;;;54.60;27.60;;;2.30;99.90;;;;;;10442547;28;20200;-78
2022/12/25 14:26:32;;;;;;;61.47;31.37;;;2.30;99.90;;;;;;10428174;28;20264;-78
2022/12/25 14:31:55;;;;;;;59.37;28.30;;;2.30;99.90;;;;;;10442215;28;20454;-78
2022/12/25 14:37:29;;;;;;;68.40;30.77;;;2.30;99.90;;;;;;10442086;28;20360;-78
2022/12/25 14:42:56;;;;;;;81.60;31.83;;;2.30;99.90;;;;;;10427783;28;20242;-79
2022/12/25 14:48:24;;;;;;;73.97;32.90;;;2.30;99.90;;;;;;10441429;28;20448;-78
2022/12/25 14:53:49;;;;;;;81.23;34.93;;;2.30;99.90;;;;;;10442472;28;20519;-78
2022/12/25 14:59:19;;;;;;;73.97;35.30;;;2.20;99.90;;;;;;10441126;28;20188;-78
2022/12/25 15:04:43;;;;;;;64.07;32.13;;;2.30;99.90;;;;;;10446332;28;20202;-78
2022/12/25 15:10:10;;;;;;;72.80;36.13;;;2.30;99.90;;;;;;10462104;28;20228;-78
2022/12/25 15:15:54;;;;;;;76.13;33.87;;;2.20;99.90;;;;;;10440995;28;20221;-78
2022/12/25 15:21:18;;;;;;;76.33;38.57;;;2.30;99.90;;;;;;10441497;28;20188;-78
2022/12/25 15:26:39;;;;;;;61.90;30.53;;;2.30;99.90;;;;;;10440155;28;20264;-78
2022/12/25 15:32:01;;;;;;;50.90;24.70;;;2.30;99.90;;;;;;10440095;28;20215;-78
2022/12/25 15:37:22;;;;;;;54.40;26.37;;;2.30;99.90;;;;;;10439957;28;20419;-78
2022/12/25 15:42:43;;;;;;;53.37;25.80;;;2.30;99.90;;;;;;10439404;28;20197;-78
2022/12/25 15:48:04;;;;;;;53.83;28.00;;;2.30;99.90;;;;;;10439146;28;20207;-78
2022/12/25 15:53:26;;;;;;;62.40;30.37;;;2.30;99.90;;;;;;10439086;28;20212;-79
2022/12/25 15:58:47;;;;;;;74.20;36.13;;;2.30;99.90;;;;;;10424684;28;20200;-78
2022/12/25 16:04:08;;;;;;;92.10;40.73;;;2.30;99.90;;;;;;10439596;28;20196;-78
2022/12/25 16:09:29;;;;;;;76.93;34.73;;;2.30;99.90;;;;;;10439139;28;20252;-78
2022/12/25 16:14:50;;;;;;;105.43;42.90;;;2.30;99.90;;;;;;10437975;28;20246;-78
2022/12/25 16:20:12;;;;;;;115.80;45.87;;;2.20;99.90;;;;;;10424096;28;20242;-78
2022/12/25 16:25:33;;;;;;;97.67;46.07;;;2.20;99.90;;;;;;10436839;28;20196;-78
2022/12/25 16:30:54;;;;;;;78.03;41.00;;;2.20;99.90;;;;;;10438688;28;20213;-78
2022/12/25 16:36:15;;;;;;;70.40;38.80;;;2.20;99.90;;;;;;10437121;28;20247;-78
2022/12/25 16:41:37;;;;;;;61.23;30.57;;;2.20;99.90;;;;;;10423107;28;20204;-78
2022/12/25 16:46:59;;;;;;;58.00;28.87;;;2.20;99.90;;;;;;10422908;28;20419;-78
2022/12/25 16:52:20;;;;;;;64.00;29.50;;;2.20;99.90;;;;;;10436776;28;20274;-79
2022/12/25 16:57:41;;;;;;;59.90;27.73;;;2.20;99.90;;;;;;10436404;28;20224;-78
2022/12/25 17:03:02;;;;;;;64.77;29.90;;;2.20;99.90;;;;;;10436353;28;20205;-78
2022/12/25 17:08:23;;;;;;;68.20;29.63;;;2.20;99.90;;;;;;10451966;28;20553;-78
2022/12/25 17:13:46;;;;;;;64.73;29.67;;;2.20;99.90;;;;;;10436073;28;20236;-78
2022/12/25 17:19:17;;;;;;;65.63;29.43;;;2.10;99.90;;;;;;10435992;28;20517;-78
2022/12/25 17:24:40;;;;;;;62.67;29.77;;;2.20;99.90;;;;;;10435755;28;20400;-78
2022/12/25 17:30:01;;;;;;;71.87;33.20;;;2.10;99.90;;;;;;10435747;28;20196;-78
2022/12/25 17:35:23;;;;;;;63.17;30.27;;;2.10;99.90;;;;;;10435893;28;20219;-78
2022/12/25 17:40:44;;;;;;;56.03;28.93;;;2.20;99.90;;;;;;10443581;28;20210;-78
2022/12/25 17:46:07;;;;;;;67.50;31.80;;;2.20;99.90;;;;;;10445023;28;20219;-78
2022/12/25 17:51:29;;;;;;;61.20;28.77;;;2.30;99.90;;;;;;10443740;28;20546;-78
2022/12/25 17:56:50;;;;;;;63.93;29.73;;;2.20;99.90;;;;;;10443662;28;20270;-78
2022/12/25 18:02:11;;;;;;;59.40;28.07;;;2.30;99.90;;;;;;10443566;28;20409;-78
2022/12/25 18:07:33;;;;;;;59.67;27.07;;;2.30;99.90;;;;;;10471851;28;20255;-78
2022/12/25 18:12:54;;;;;;;55.33;27.03;;;2.30;99.90;;;;;;10444227;28;20188;-78
2022/12/25 18:18:15;;;;;;;57.33;28.67;;;2.20;99.90;;;;;;10442774;28;20228;-78
2022/12/25 18:23:36;;;;;;;52.33;26.63;;;2.20;99.90;;;;;;10445084;28;20247;-78
2022/12/25 18:28:57;;;;;;;50.20;25.50;;;2.20;99.90;;;;;;10442213;28;20549;-78
2022/12/25 18:34:18;;;;;;;46.57;23.60;;;2.20;99.90;;;;;;10456342;28;20226;-78
2022/12/25 18:39:40;;;;;;;54.57;29.43;;;2.30;99.90;;;;;;10444384;28;20243;-78
2022/12/25 18:45:01;;;;;;;51.63;26.77;;;2.30;99.90;;;;;;10455931;28;20218;-78
2022/12/25 18:50:23;;;;;;;51.90;27.37;;;2.30;99.90;;;;;;10440103;28;20216;-79
2022/12/25 18:55:44;;;;;;;56.60;25.73;;;2.30;99.90;;;;;;10441330;28;20223;-78
2022/12/25 19:01:13;;;;;;;48.40;24.57;;;2.30;99.90;;;;;;10441485;28;20262;-78
2022/12/25 19:06:35;;;;;;;52.90;25.50;;;2.30;99.90;;;;;;10461760;28;20206;-78
2022/12/25 19:11:56;;;;;;;51.90;24.67;;;2.30;99.90;;;;;;10432945;28;20510;-79
2022/12/25 19:17:18;;;;;;;60.70;30.77;;;2.40;99.90;;;;;;10426524;28;20234;-78
2022/12/25 19:22:39;;;;;;;53.97;29.03;;;2.30;99.90;;;;;;10440377;28;20263;-78
2022/12/25 19:28:00;;;;;;;53.20;27.47;;;2.40;99.90;;;;;;10440007;28;20199;-79
2022/12/25 19:33:21;;;;;;;54.97;26.40;;;2.40;99.90;;;;;;10425435;28;20217;-78
2022/12/25 19:38:43;;;;;;;57.67;26.80;;;2.50;99.90;;;;;;10439914;28;20414;-78
2022/12/25 19:44:04;;;;;;;46.87;24.80;;;2.50;99.90;;;;;;10439796;28;20196;-78
2022/12/25 19:49:26;;;;;;;61.27;28.20;;;2.50;99.90;;;;;;10425056;28;20197;-79
2022/12/25 19:54:51;;;;;;;50.33;26.37;;;2.50;99.90;;;;;;10439338;28;20226;-78
2022/12/25 20:00:12;;;;;;;54.23;26.87;;;2.50;99.90;;;;;;10438827;28;20192;-78
2022/12/25 20:05:34;;;;;;;53.50;27.10;;;2.50;99.90;;;;;;10451144;28;20510;-78
2022/12/25 20:10:55;;;;;;;46.60;25.03;;;2.60;99.90;;;;;;10453842;28;20232;-78
2022/12/25 20:16:16;;;;;;;58.43;27.87;;;2.60;99.90;;;;;;10438072;28;20458;-78
2022/12/25 20:21:38;;;;;;;54.50;26.93;;;2.60;99.90;;;;;;10438065;28;20427;-78
2022/12/25 20:26:59;;;;;;;61.17;30.40;;;2.60;99.90;;;;;;10438780;28;20196;-77
2022/12/25 20:32:20;;;;;;;53.17;27.47;;;2.70;99.90;;;;;;10437605;28;20188;-78
2022/12/25 20:37:42;;;;;;;58.03;27.10;;;2.70;99.90;;;;;;10437645;28;20450;-78
2022/12/25 20:43:03;;;;;;;57.53;27.50;;;2.70;99.90;;;;;;10437154;28;20483;-78
2022/12/25 20:48:25;;;;;;;72.87;32.43;;;2.70;99.90;;;;;;10422789;28;20499;-79
2022/12/25 20:53:46;;;;;;;60.00;31.27;;;2.80;99.90;;;;;;10422840;28;20393;-78
2022/12/25 20:59:10;;;;;;;58.13;27.73;;;2.80;99.90;;;;;;10436582;28;20200;-78
2022/12/25 21:04:33;;;;;;;51.70;26.93;;;2.80;99.90;;;;;;10441861;28;20278;-79
2022/12/25 21:09:54;;;;;;;58.30;29.10;;;2.80;99.90;;;;;;10445176;28;20236;-79
2022/12/25 21:15:15;;;;;;;56.23;30.03;;;2.90;99.90;;;;;;10421483;28;20229;-78
2022/12/25 21:20:37;;;;;;;61.63;29.83;;;2.90;99.90;;;;;;10436412;28;20249;-78
2022/12/25 21:25:58;;;;;;;58.70;30.27;;;2.90;99.90;;;;;;10435821;28;20196;-79
2022/12/25 21:31:21;;;;;;;62.63;31.73;;;2.90;99.90;;;;;;10435975;28;20192;-79
2022/12/25 21:36:42;;;;;;;67.77;31.93;;;2.90;99.90;;;;;;10436752;28;20216;-78
2022/12/25 21:42:04;;;;;;;64.17;32.10;;;2.90;99.90;;;;;;10436799;28;20188;-78
2022/12/25 21:47:25;;;;;;;59.17;30.07;;;2.90;99.90;;;;;;10435672;28;20415;-79
2022/12/25 21:52:46;;;;;;;64.43;30.27;;;2.90;99.90;;;;;;10421776;28;20208;-78
2022/12/25 21:58:07;;;;;;;67.83;31.57;;;2.90;99.90;;;;;;10435610;28;20226;-78
2022/12/25 22:03:29;;;;;;;63.57;31.73;;;2.90;99.90;;;;;;10435435;28;20193;-78
2022/12/25 22:08:50;;;;;;;72.17;33.27;;;3.00;99.90;;;;;;10450881;28;20473;-78
2022/12/25 22:20:00;;;;;;;73.30;33.53;;;3.00;99.90;;;;;;10434993;28;20220;-78
2022/12/25 22:25:22;;;;;;;72.43;34.40;;;3.00;99.90;;;;;;10441134;28;20427;-79
2022/12/25 22:30:43;;;;;;;75.20;36.13;;;3.10;99.90;;;;;;10442115;28;20193;-78
2022/12/25 22:36:07;;;;;;;74.20;36.53;;;3.10;99.90;;;;;;10442312;28;20226;-78
2022/12/25 22:41:28;;;;;;;75.43;35.00;;;3.10;99.90;;;;;;10428284;28;20197;-78
2022/12/25 22:46:53;;;;;;;75.30;34.90;;;3.10;99.90;;;;;;10428482;28;20521;-78
2022/12/25 22:52:14;;;;;;;70.13;34.03;;;3.10;99.90;;;;;;10441483;28;20198;-79
2022/12/25 22:57:35;;;;;;;61.23;32.53;;;3.00;99.90;;;;;;10442364;28;20546;-79
2022/12/25 23:02:57;;;;;;;66.33;33.60;;;3.00;99.90;;;;;;10442426;28;20387;-78
2022/12/25 23:08:18;;;;;;;69.47;34.53;;;3.00;99.90;;;;;;10485063;28;20236;-78
2022/12/25 23:30:38;;;;;;;84.77;32.90;;;3.10;99.90;;;;;;10440033;28;20274;-78
2022/12/25 23:36:00;;;;;;;58.17;32.27;;;3.00;99.90;;;;;;10440457;28;20223;-78
2022/12/25 23:41:21;;;;;;;61.67;30.83;;;3.00;99.90;;;;;;10439822;28;20196;-78
2022/12/25 23:46:43;;;;;;;64.87;32.07;;;3.10;99.90;;;;;;10440665;28;20492;-79
2022/12/25 23:52:04;;;;;;;62.23;31.77;;;3.20;99.90;;;;;;10439254;28;20197;-78
2022/12/25 23:57:25;;;;;;;63.30;31.83;;;3.20;99.90;;;;;;10439973;28;20223;-78
